Time;durP1;ratioP1;P1;durP2;ratioP2;P2;SDS_P1;SDS_P2;PMS_P1;PMS_P2;Temp;Humidity;BMP_temperature;BMP_pressure;BME280_temperature;BME280_humidity;BME280_pressure;Samples;Min_cycle;Max_cycle;Signal;HPM_P1;HPM_P2
2023/10/15 00:00:47;;;;;;;12.32;1.52;;;7.80;99.90;;;;;;5001445;28;62446;-70
2023/10/15 00:03:13;;;;;;;13.70;2.00;;;7.80;99.90;;;;;;5037822;28;20060;-71
2023/10/15 00:05:39;;;;;;;12.38;1.60;;;7.70;99.90;;;;;;5018525;28;22305;-74
2023/10/15 00:08:05;;;;;;;10.43;1.60;;;7.60;99.90;;;;;;5054818;28;20056;-72
2023/10/15 00:10:32;;;;;;;8.77;1.35;;;7.40;99.90;;;;;;5012400;28;265958;-72
2023/10/15 00:12:58;;;;;;;10.15;1.40;;;7.30;99.90;;;;;;5041226;28;20459;-72
2023/10/15 00:15:28;;;;;;;12.32;1.33;;;7.30;99.90;;;;;;5014427;28;153491;-73
2023/10/15 00:17:59;;;;;;;11.55;1.30;;;7.20;99.90;;;;;;5054999;28;20049;-73
2023/10/15 00:20:40;;;;;;;11.88;1.80;;;7.20;99.90;;;;;;5016583;28;96300;-72
2023/10/15 00:23:06;;;;;;;9.60;1.42;;;7.10;99.90;;;;;;5052401;28;20053;-72
2023/10/15 00:25:35;;;;;;;11.00;1.15;;;7.10;99.90;;;;;;5003504;28;228037;-71
2023/10/15 00:28:06;;;;;;;9.40;1.20;;;7.10;99.90;;;;;;5047649;28;20048;-72
2023/10/15 00:30:32;;;;;;;12.35;1.33;;;7.10;99.90;;;;;;5002453;28;185910;-72
2023/10/15 00:33:03;;;;;;;8.85;1.48;;;7.10;99.90;;;;;;5050248;28;20059;-72
2023/10/15 00:35:33;;;;;;;9.23;1.30;;;7.10;99.90;;;;;;5012250;28;65162;-72
2023/10/15 00:38:16;;;;;;;7.18;1.08;;;7.10;99.90;;;;;;5050626;28;20306;-71
2023/10/15 00:40:42;;;;;;;10.15;1.40;;;7.20;99.90;;;;;;5016357;28;200676;-72
2023/10/15 00:43:10;;;;;;;10.25;1.48;;;7.10;99.90;;;;;;5054272;28;20063;-71
2023/10/15 00:45:43;;;;;;;11.05;1.40;;;7.10;99.90;;;;;;5010716;28;127377;-71
2023/10/15 00:48:12;;;;;;;11.00;1.27;;;7.10;99.90;;;;;;5055053;28;20045;-72
2023/10/15 00:50:41;;;;;;;9.20;1.27;;;7.20;99.90;;;;;;4976892;28;160569;-71
2023/10/15 00:53:24;;;;;;;14.00;1.27;;;7.20;99.90;;;;;;5056575;28;20056;-71
2023/10/15 00:56:03;;;;;;;7.28;1.00;;;7.20;99.90;;;;;;5014962;28;138636;-71
2023/10/15 00:58:54;;;;;;;11.32;1.52;;;7.20;99.90;;;;;;5059321;28;20044;-72
2023/10/15 01:01:26;;;;;;;8.88;1.30;;;7.20;99.90;;;;;;4988655;28;201288;-71
2023/10/15 01:03:57;;;;;;;9.45;1.40;;;7.20;99.90;;;;;;5060828;28;20048;-71
2023/10/15 01:12:19;;;;;;;10.95;1.65;;;7.30;99.90;;;;;;5010229;28;20041;-71
2023/10/15 01:14:45;;;;;;;9.43;1.38;;;7.30;99.90;;;;;;5013395;28;214849;-71
2023/10/15 01:17:11;;;;;;;8.95;1.33;;;7.30;99.90;;;;;;5056320;28;20056;-71
2023/10/15 01:19:37;;;;;;;10.38;1.45;;;7.30;99.90;;;;;;5008344;28;202959;-71
2023/10/15 01:22:18;;;;;;;11.98;1.35;;;7.30;99.90;;;;;;5054036;28;20048;-71
2023/10/15 01:24:50;;;;;;;10.23;1.38;;;7.30;99.90;;;;;;4995678;28;85926;-72
2023/10/15 01:27:22;;;;;;;9.38;1.27;;;7.30;99.90;;;;;;5044162;28;20052;-72
2023/10/15 01:29:48;;;;;;;7.95;1.30;;;7.30;99.90;;;;;;5007478;28;149337;-71
2023/10/15 01:34:44;;;;;;;8.77;1.33;;;7.20;99.90;;;;;;5006197;28;157643;-70
2023/10/15 01:37:15;;;;;;;9.63;1.40;;;7.20;99.90;;;;;;5034840;28;20061;-72
2023/10/15 01:39:47;;;;;;;9.60;1.20;;;7.20;99.90;;;;;;5008356;28;116628;-73
2023/10/15 01:48:03;;;;;;;10.27;1.40;;;7.00;99.90;;;;;;5048340;28;20049;-71
2023/10/15 01:50:41;;;;;;;11.85;1.67;;;7.00;99.90;;;;;;5001842;28;152357;-71
2023/10/15 01:53:07;;;;;;;13.40;1.55;;;6.90;99.90;;;;;;5050199;28;20052;-72
2023/10/15 01:55:35;;;;;;;9.55;1.50;;;6.90;99.90;;;;;;5008580;28;249855;-70
2023/10/15 01:58:06;;;;;;;10.93;1.52;;;6.90;99.90;;;;;;5053623;28;20597;-71
2023/10/15 02:00:33;;;;;;;10.63;1.20;;;6.90;99.90;;;;;;5002652;28;36778;-70
2023/10/15 02:03:00;;;;;;;7.80;1.23;;;6.90;99.90;;;;;;5055436;28;20513;-70
2023/10/15 02:05:29;;;;;;;7.97;1.33;;;6.80;99.90;;;;;;5003089;28;178451;-70
2023/10/15 02:07:56;;;;;;;9.38;1.30;;;6.80;99.90;;;;;;5055390;28;20070;-70
2023/10/15 02:10:23;;;;;;;13.82;1.52;;;6.80;99.90;;;;;;5016354;28;89713;-69
2023/10/15 02:12:59;;;;;;;8.90;1.17;;;6.70;99.90;;;;;;5048172;28;20048;-71
2023/10/15 02:15:31;;;;;;;7.80;1.30;;;6.70;99.90;;;;;;5000602;28;174034;-71
2023/10/15 02:17:59;;;;;;;10.55;1.60;;;6.70;99.90;;;;;;5045642;28;20060;-71
2023/10/15 02:20:42;;;;;;;8.85;1.20;;;6.70;99.90;;;;;;5007882;28;243943;-70
2023/10/15 02:23:08;;;;;;;10.85;1.48;;;6.60;99.90;;;;;;5049710;28;20064;-70
2023/10/15 02:25:41;;;;;;;11.32;1.40;;;6.60;99.90;;;;;;5007676;28;191642;-70
2023/10/15 02:28:10;;;;;;;12.52;1.60;;;6.70;99.90;;;;;;5053898;28;20071;-71
2023/10/15 02:30:40;;;;;;;9.25;1.50;;;6.70;99.90;;;;;;4980097;28;225943;-72
2023/10/15 02:33:06;;;;;;;14.82;1.67;;;6.70;99.90;;;;;;5058114;28;20087;-74
2023/10/15 02:35:42;;;;;;;10.77;1.50;;;6.70;99.90;;;;;;4994540;28;233124;-72
2023/10/15 02:38:10;;;;;;;14.20;1.85;;;6.70;99.90;;;;;;5056672;28;20435;-73
2023/10/15 02:40:56;;;;;;;8.20;1.50;;;6.70;99.90;;;;;;5004766;28;35430;-70
2023/10/15 02:43:25;;;;;;;13.05;1.50;;;6.80;99.90;;;;;;5057084;28;20048;-72
2023/10/15 02:45:51;;;;;;;12.85;1.50;;;6.70;99.90;;;;;;5010386;28;76059;-72
2023/10/15 02:48:21;;;;;;;11.90;1.60;;;6.80;99.90;;;;;;5029537;28;20053;-72
2023/10/15 02:51:09;;;;;;;8.52;1.50;;;6.80;99.90;;;;;;4998310;28;143412;-72
2023/10/15 02:53:39;;;;;;;12.60;1.35;;;6.80;99.90;;;;;;5052651;28;20048;-72
2023/10/15 02:56:12;;;;;;;6.32;1.00;;;6.70;99.90;;;;;;4998232;28;146098;-72
2023/10/15 02:58:39;;;;;;;8.73;1.02;;;6.70;99.90;;;;;;5054939;28;20064;-72
2023/10/15 03:01:12;;;;;;;8.32;1.20;;;6.60;99.90;;;;;;4996888;28;79667;-72
2023/10/15 03:03:48;;;;;;;9.05;1.30;;;6.70;99.90;;;;;;5053212;28;20276;-72
2023/10/15 03:06:18;;;;;;;8.90;1.38;;;6.60;99.90;;;;;;4989787;28;20049;-72
2023/10/15 03:08:46;;;;;;;6.25;0.90;;;6.60;99.90;;;;;;5054274;28;20060;-71
2023/10/15 03:11:13;;;;;;;11.43;1.50;;;6.60;99.90;;;;;;4996112;28;85610;-71
2023/10/15 03:13:49;;;;;;;8.43;1.10;;;6.50;99.90;;;;;;5052125;28;20422;-71
2023/10/15 03:16:23;;;;;;;12.95;1.30;;;6.50;99.90;;;;;;5019461;28;253978;-71
2023/10/15 03:18:52;;;;;;;9.25;1.23;;;6.40;99.90;;;;;;5058482;28;20530;-71
2023/10/15 03:21:30;;;;;;;9.35;1.52;;;6.40;99.90;;;;;;5022214;28;150514;-72
2023/10/15 03:23:57;;;;;;;8.73;1.20;;;6.30;99.90;;;;;;5045092;28;20060;-71
2023/10/15 03:26:34;;;;;;;10.57;1.60;;;6.30;99.90;;;;;;5020179;28;90720;-72
2023/10/15 03:29:13;;;;;;;11.82;1.00;;;6.20;99.90;;;;;;5013671;28;20506;-70
2023/10/15 03:31:46;;;;;;;9.52;1.20;;;6.30;99.90;;;;;;5023611;28;165266;-70
2023/10/15 03:39:24;;;;;;;12.82;1.58;;;6.40;99.90;;;;;;5028654;28;20056;-71
2023/10/15 03:41:59;;;;;;;10.27;1.45;;;6.40;99.90;;;;;;5032296;28;20044;-70
2023/10/15 03:44:32;;;;;;;12.02;1.45;;;6.30;99.90;;;;;;5017981;28;21150;-71
2023/10/15 03:47:04;;;;;;;10.13;1.55;;;6.30;99.90;;;;;;5034704;28;20518;-70
2023/10/15 03:49:32;;;;;;;10.30;1.02;;;6.20;99.90;;;;;;4994674;28;242626;-70
2023/10/15 03:51:58;;;;;;;8.52;1.27;;;6.20;99.90;;;;;;5054829;28;20156;-71
2023/10/15 03:54:25;;;;;;;8.40;1.20;;;6.20;99.90;;;;;;5007059;28;158129;-70
2023/10/15 03:56:52;;;;;;;7.53;1.27;;;6.20;99.90;;;;;;5027556;28;20392;-70
2023/10/15 03:59:20;;;;;;;7.70;1.15;;;6.20;99.90;;;;;;5014441;28;164487;-72
2023/10/15 04:01:50;;;;;;;7.78;1.10;;;6.30;99.90;;;;;;5041607;28;20052;-70
2023/10/15 04:04:17;;;;;;;8.80;1.20;;;6.30;99.90;;;;;;5026868;28;155313;-71
2023/10/15 04:07:02;;;;;;;6.38;1.05;;;6.40;99.90;;;;;;5053905;28;20294;-71
2023/10/15 04:09:33;;;;;;;8.55;1.20;;;6.40;99.90;;;;;;5009798;28;163036;-71
2023/10/15 04:11:59;;;;;;;6.28;0.93;;;6.40;99.90;;;;;;5026556;28;20048;-71
2023/10/15 04:14:28;;;;;;;7.47;1.00;;;6.40;99.90;;;;;;5019641;28;72497;-70
2023/10/15 04:16:57;;;;;;;11.88;1.00;;;6.40;99.90;;;;;;5039567;28;20040;-71
2023/10/15 04:19:26;;;;;;;8.30;1.20;;;6.50;99.90;;;;;;5004371;28;20048;-72
2023/10/15 04:21:59;;;;;;;8.02;1.08;;;6.40;99.90;;;;;;5046901;28;20041;-71
2023/10/15 04:24:38;;;;;;;8.30;1.20;;;6.40;99.90;;;;;;5011103;28;159074;-70
2023/10/15 04:27:06;;;;;;;6.63;0.90;;;6.50;99.90;;;;;;5046651;28;20056;-71
2023/10/15 04:29:35;;;;;;;9.10;1.30;;;6.50;99.90;;;;;;5012437;28;123058;-69
2023/10/15 04:32:03;;;;;;;8.77;1.00;;;6.50;99.90;;;;;;5046795;28;20056;-72
2023/10/15 04:34:32;;;;;;;8.52;1.10;;;6.40;99.90;;;;;;5013201;28;36046;-71
2023/10/15 04:37:01;;;;;;;8.23;1.15;;;6.40;99.90;;;;;;5039386;28;20049;-71
2023/10/15 04:39:28;;;;;;;11.77;1.30;;;6.40;99.90;;;;;;5010006;28;177245;-71
2023/10/15 04:41:56;;;;;;;10.55;1.25;;;6.30;99.90;;;;;;5059488;28;20056;-71
2023/10/15 04:44:31;;;;;;;7.00;1.23;;;6.30;99.90;;;;;;5021895;28;22321;-71
2023/10/15 04:47:05;;;;;;;7.97;0.95;;;6.30;99.90;;;;;;5025506;28;20124;-71
2023/10/15 04:49:34;;;;;;;8.23;1.05;;;6.30;99.90;;;;;;5001249;28;92649;-71
2023/10/15 04:52:00;;;;;;;8.57;1.05;;;6.30;99.90;;;;;;5036862;28;20047;-70
2023/10/15 04:54:26;;;;;;;9.93;1.17;;;6.40;99.90;;;;;;5010332;28;98635;-71
2023/10/15 04:56:54;;;;;;;5.50;1.08;;;6.40;99.90;;;;;;5041304;28;20421;-71
2023/10/15 04:59:21;;;;;;;7.07;0.90;;;6.40;99.90;;;;;;5011257;28;224883;-71
2023/10/15 05:01:48;;;;;;;7.38;0.90;;;6.40;99.90;;;;;;5037367;28;20060;-70
2023/10/15 05:04:14;;;;;;;5.88;0.90;;;6.40;99.90;;;;;;5027516;28;20038;-71
2023/10/15 05:06:41;;;;;;;8.98;0.90;;;6.50;99.90;;;;;;5024114;28;123445;-70
2023/10/15 05:09:09;;;;;;;6.97;0.90;;;6.50;99.90;;;;;;5029499;28;20083;-71
2023/10/15 05:11:35;;;;;;;7.75;0.95;;;6.40;99.90;;;;;;5026237;28;230182;-71
2023/10/15 05:14:02;;;;;;;9.95;1.20;;;6.50;99.90;;;;;;5027429;28;20057;-71
2023/10/15 05:16:29;;;;;;;6.88;0.90;;;6.50;99.90;;;;;;5026359;28;59537;-70
2023/10/15 05:18:58;;;;;;;10.23;1.10;;;6.40;99.90;;;;;;5046396;28;20521;-70
2023/10/15 05:21:25;;;;;;;12.25;1.15;;;6.50;99.90;;;;;;5030620;28;20052;-70
2023/10/15 05:23:51;;;;;;;8.50;0.90;;;6.50;99.90;;;;;;5052745;28;20061;-70
2023/10/15 05:26:19;;;;;;;10.90;1.35;;;6.50;99.90;;;;;;4976416;28;164039;-70
2023/10/15 05:28:47;;;;;;;7.88;1.40;;;6.50;99.90;;;;;;5061516;28;20396;-70
2023/10/15 05:31:13;;;;;;;8.00;1.02;;;6.50;99.90;;;;;;4998032;28;20044;-70
2023/10/15 05:33:39;;;;;;;6.45;0.80;;;6.50;99.90;;;;;;5056369;28;20561;-70
2023/10/15 05:36:06;;;;;;;6.90;0.93;;;6.50;99.90;;;;;;5008550;28;20159;-70
2023/10/15 05:38:32;;;;;;;7.93;1.02;;;6.50;99.90;;;;;;5057421;28;20486;-71
2023/10/15 05:40:58;;;;;;;6.63;1.00;;;6.50;99.90;;;;;;5010437;28;246453;-71
2023/10/15 05:43:26;;;;;;;8.57;1.23;;;6.40;99.90;;;;;;5053042;28;20052;-69
2023/10/15 05:45:52;;;;;;;5.63;0.75;;;6.40;99.90;;;;;;4987055;28;187199;-70
2023/10/15 05:48:18;;;;;;;6.38;0.88;;;6.40;99.90;;;;;;5057040;28;20061;-70
2023/10/15 05:50:51;;;;;;;7.97;0.88;;;6.40;99.90;;;;;;4993538;28;159583;-72
2023/10/15 05:53:17;;;;;;;8.30;1.20;;;6.40;99.90;;;;;;5055751;28;20043;-70
2023/10/15 05:55:44;;;;;;;6.15;0.90;;;6.40;99.90;;;;;;5006251;28;221267;-71
2023/10/15 05:58:10;;;;;;;12.88;1.20;;;6.30;99.90;;;;;;5056287;28;20094;-69
2023/10/15 06:00:39;;;;;;;5.90;0.90;;;6.30;99.90;;;;;;5007077;28;247182;-71
2023/10/15 06:03:11;;;;;;;5.85;0.93;;;6.30;99.90;;;;;;5055590;28;20378;-70
2023/10/15 06:05:37;;;;;;;8.98;1.13;;;6.30;99.90;;;;;;5006076;28;178877;-70
2023/10/15 06:08:04;;;;;;;5.90;0.82;;;6.30;99.90;;;;;;5033929;28;20049;-69
2023/10/15 06:10:32;;;;;;;7.65;0.80;;;6.30;99.90;;;;;;5012305;28;181838;-70
2023/10/15 06:12:59;;;;;;;6.63;0.80;;;6.40;99.90;;;;;;5056035;28;20079;-71
2023/10/15 06:15:26;;;;;;;6.78;0.80;;;6.30;99.90;;;;;;5014477;28;218160;-71
2023/10/15 06:17:52;;;;;;;6.97;1.02;;;6.40;99.90;;;;;;5056298;28;20055;-72
2023/10/15 06:20:18;;;;;;;6.53;0.90;;;6.40;99.90;;;;;;5015970;28;36065;-71
2023/10/15 06:22:49;;;;;;;10.10;1.10;;;6.40;99.90;;;;;;5056752;28;20040;-71
2023/10/15 06:25:19;;;;;;;8.00;1.00;;;6.50;99.90;;;;;;5016343;28;32301;-71
2023/10/15 06:27:45;;;;;;;6.35;0.80;;;6.40;99.90;;;;;;5045590;28;20045;-71
2023/10/15 06:30:16;;;;;;;7.90;0.90;;;6.50;99.90;;;;;;5009824;28;130114;-71
2023/10/15 06:32:49;;;;;;;6.95;0.75;;;6.50;99.90;;;;;;5030568;28;20044;-71
2023/10/15 06:35:18;;;;;;;6.07;0.95;;;6.50;99.90;;;;;;5020275;28;20048;-71
2023/10/15 06:37:48;;;;;;;6.38;0.80;;;6.50;99.90;;;;;;5032193;28;20061;-71
2023/10/15 06:40:15;;;;;;;6.63;0.90;;;6.50;99.90;;;;;;5017293;28;20063;-71
2023/10/15 06:42:43;;;;;;;6.90;0.93;;;6.50;99.90;;;;;;5049317;28;20087;-70
2023/10/15 06:45:10;;;;;;;5.93;1.08;;;6.50;99.90;;;;;;5011142;28;20056;-72
2023/10/15 06:47:37;;;;;;;6.82;0.80;;;6.50;99.90;;;;;;5052446;28;20063;-71
2023/10/15 06:50:07;;;;;;;8.63;0.88;;;6.50;99.90;;;;;;4978324;28;185102;-70
2023/10/15 06:52:39;;;;;;;5.82;0.85;;;6.60;99.90;;;;;;5051293;28;20053;-72
2023/10/15 06:55:07;;;;;;;7.28;0.93;;;6.60;99.90;;;;;;5001665;28;20049;-69
2023/10/15 06:57:33;;;;;;;4.50;0.70;;;6.60;99.90;;;;;;5046798;28;20057;-72
2023/10/15 07:00:00;;;;;;;6.43;0.98;;;6.50;99.90;;;;;;5009381;28;20048;-71
2023/10/15 07:02:28;;;;;;;4.47;0.70;;;6.60;99.90;;;;;;5060498;28;20037;-70
2023/10/15 07:05:00;;;;;;;5.00;0.80;;;6.50;99.90;;;;;;5012608;28;20542;-71
2023/10/15 07:07:27;;;;;;;7.88;0.80;;;6.50;99.90;;;;;;5052477;28;20052;-71
2023/10/15 07:09:53;;;;;;;6.00;0.80;;;6.50;99.90;;;;;;5014925;28;20196;-70
2023/10/15 07:12:20;;;;;;;5.95;0.85;;;6.60;99.90;;;;;;5046064;28;20059;-71
2023/10/15 07:14:47;;;;;;;7.18;0.82;;;6.60;99.90;;;;;;5014913;28;20040;-71
2023/10/15 07:17:13;;;;;;;5.15;0.90;;;6.60;99.90;;;;;;5060127;28;20061;-71
2023/10/15 07:19:39;;;;;;;5.53;0.93;;;6.60;99.90;;;;;;5014515;28;20087;-70
2023/10/15 07:22:05;;;;;;;4.13;0.73;;;6.50;99.90;;;;;;5037610;28;20045;-69
2023/10/15 07:24:31;;;;;;;6.25;0.77;;;6.50;99.90;;;;;;5014905;28;20060;-70
2023/10/15 07:26:58;;;;;;;7.18;0.90;;;6.60;99.90;;;;;;5037689;28;20060;-72
2023/10/15 07:29:27;;;;;;;9.02;0.90;;;6.50;99.90;;;;;;5018305;28;20048;-72
2023/10/15 07:31:55;;;;;;;5.53;0.90;;;6.50;99.90;;;;;;5052611;28;20491;-73
2023/10/15 07:34:26;;;;;;;6.95;0.77;;;6.40;99.90;;;;;;5018687;28;20060;-71
2023/10/15 07:36:55;;;;;;;7.05;0.80;;;6.30;99.90;;;;;;5052151;28;20056;-72
2023/10/15 07:39:23;;;;;;;5.22;0.88;;;6.30;99.90;;;;;;5018516;28;20790;-72
2023/10/15 07:41:49;;;;;;;5.53;0.80;;;6.30;99.90;;;;;;5065149;28;20060;-71
2023/10/15 07:44:16;;;;;;;8.18;0.90;;;6.30;99.90;;;;;;5019939;28;20041;-71
2023/10/15 07:46:45;;;;;;;9.75;1.02;;;6.40;99.90;;;;;;5071592;28;20056;-72
2023/10/15 07:49:16;;;;;;;9.52;1.17;;;6.40;99.90;;;;;;4998051;28;215629;-72
2023/10/15 07:51:42;;;;;;;10.43;1.10;;;6.40;99.90;;;;;;5028307;28;20743;-72
2023/10/15 07:54:08;;;;;;;5.40;0.93;;;6.50;99.90;;;;;;5014427;28;20057;-71
2023/10/15 07:56:34;;;;;;;8.43;1.02;;;6.60;99.90;;;;;;5060354;28;20033;-71
2023/10/15 07:59:08;;;;;;;8.02;0.98;;;6.70;99.90;;;;;;5016765;28;20048;-70
2023/10/15 08:01:36;;;;;;;8.50;1.23;;;6.80;99.90;;;;;;5027985;28;20538;-71
2023/10/15 08:04:05;;;;;;;7.97;1.02;;;6.90;99.90;;;;;;5021844;28;20044;-71
2023/10/15 08:06:31;;;;;;;6.47;0.82;;;7.00;99.90;;;;;;5026473;28;20534;-72
2023/10/15 08:08:57;;;;;;;10.02;1.00;;;7.10;99.90;;;;;;5036374;28;20060;-71
2023/10/15 08:11:23;;;;;;;8.00;0.90;;;7.20;99.90;;;;;;5030764;28;259331;-70
2023/10/15 08:13:51;;;;;;;9.15;1.00;;;7.20;99.90;;;;;;5053211;28;20049;-71
2023/10/15 08:16:18;;;;;;;7.75;1.08;;;7.30;99.90;;;;;;5011684;28;20053;-70
2023/10/15 08:18:45;;;;;;;12.13;0.98;;;7.30;99.90;;;;;;5057710;28;20052;-70
2023/10/15 08:21:12;;;;;;;9.07;1.50;;;7.40;99.90;;;;;;5016968;28;20061;-69
2023/10/15 08:23:38;;;;;;;9.70;2.17;;;7.50;99.90;;;;;;5059896;28;20399;-70
2023/10/15 08:26:05;;;;;;;9.00;1.13;;;7.60;99.90;;;;;;5015333;28;20542;-70
2023/10/15 08:28:32;;;;;;;10.23;1.00;;;7.80;99.90;;;;;;5058469;28;20048;-69
2023/10/15 08:30:59;;;;;;;10.48;1.42;;;7.80;99.90;;;;;;4982399;28;20437;-70
2023/10/15 08:33:26;;;;;;;7.80;1.13;;;7.80;99.90;;;;;;5058623;28;20056;-71
2023/10/15 08:35:52;;;;;;;9.20;1.10;;;7.80;99.90;;;;;;4998559;28;20040;-69
2023/10/15 08:38:18;;;;;;;9.00;1.25;;;7.80;99.90;;;;;;5054596;28;20056;-69
2023/10/15 08:40:45;;;;;;;8.50;1.10;;;7.80;99.90;;;;;;5010169;28;20056;-69
2023/10/15 08:43:40;;;;;;;10.90;1.30;;;7.90;99.90;;;;;;5050892;28;20076;-70
2023/10/15 08:46:09;;;;;;;11.18;1.30;;;8.20;99.90;;;;;;5015242;28;20529;-70
2023/10/15 08:48:40;;;;;;;7.97;1.25;;;8.20;99.90;;;;;;5056886;28;20056;-70
2023/10/15 08:51:12;;;;;;;7.50;1.10;;;8.30;99.90;;;;;;4996930;28;233092;-71
2023/10/15 08:53:40;;;;;;;6.32;1.08;;;8.20;99.90;;;;;;5054934;28;20056;-71
2023/10/15 08:56:09;;;;;;;7.60;1.05;;;8.20;99.90;;;;;;5009257;28;20052;-70
2023/10/15 08:58:36;;;;;;;6.53;0.93;;;8.30;99.90;;;;;;5056434;28;20072;-71
2023/10/15 09:01:04;;;;;;;9.82;1.23;;;8.40;99.90;;;;;;5002151;28;20041;-70
2023/10/15 09:03:30;;;;;;;9.98;1.40;;;8.40;99.90;;;;;;5051985;28;20061;-71
2023/10/15 09:05:57;;;;;;;8.13;1.17;;;8.40;99.90;;;;;;5007912;28;20392;-71
2023/10/15 09:08:23;;;;;;;9.52;1.20;;;8.40;99.90;;;;;;5055828;28;20032;-70
2023/10/15 09:10:52;;;;;;;9.55;1.17;;;8.40;99.90;;;;;;4998405;28;20056;-71
2023/10/15 09:13:21;;;;;;;7.60;1.10;;;8.30;99.90;;;;;;5050800;28;20064;-71
2023/10/15 09:15:50;;;;;;;8.15;1.30;;;8.40;99.90;;;;;;4990185;28;20041;-71
2023/10/15 09:18:16;;;;;;;9.25;1.33;;;8.40;99.90;;;;;;5055441;28;20044;-70
2023/10/15 09:20:52;;;;;;;7.28;1.35;;;8.40;99.90;;;;;;5003561;28;20063;-71
2023/10/15 09:23:22;;;;;;;7.80;1.52;;;8.50;99.90;;;;;;5054620;28;20056;-69
2023/10/15 09:25:52;;;;;;;10.47;1.13;;;8.70;99.90;;;;;;5000195;28;20718;-69
2023/10/15 09:28:19;;;;;;;6.15;0.93;;;8.90;99.90;;;;;;5054132;28;20052;-70
2023/10/15 09:30:46;;;;;;;5.45;0.77;;;8.90;99.90;;;;;;4990114;28;20533;-70
2023/10/15 09:33:17;;;;;;;5.25;0.90;;;8.80;99.90;;;;;;5051835;28;20056;-71
2023/10/15 09:35:44;;;;;;;5.70;0.90;;;9.10;99.90;;;;;;5005873;28;20100;-71
2023/10/15 09:38:13;;;;;;;9.98;1.10;;;9.20;99.90;;;;;;5050763;28;20059;-68
2023/10/15 09:40:46;;;;;;;11.07;1.05;;;9.30;99.90;;;;;;5011288;28;20063;-69
2023/10/15 09:43:13;;;;;;;9.85;1.00;;;9.40;99.90;;;;;;5038931;28;20052;-70
2023/10/15 09:45:41;;;;;;;8.50;1.33;;;9.50;99.90;;;;;;5009054;27;20052;-70
2023/10/15 09:48:11;;;;;;;11.15;1.38;;;9.70;99.90;;;;;;5051454;28;20064;-70
2023/10/15 09:50:42;;;;;;;11.75;1.42;;;9.70;99.90;;;;;;4983256;28;124614;-68
2023/10/15 09:53:11;;;;;;;13.73;1.58;;;9.90;99.90;;;;;;5049141;28;20056;-70
2023/10/15 09:55:40;;;;;;;10.43;1.40;;;10.00;99.90;;;;;;4990396;28;20040;-70
2023/10/15 09:58:09;;;;;;;12.68;1.55;;;10.00;99.90;;;;;;5053111;28;20056;-70
2023/10/15 10:00:46;;;;;;;8.75;1.20;;;10.00;99.90;;;;;;5004288;28;20548;-71
2023/10/15 10:03:32;;;;;;;9.65;1.40;;;10.10;99.90;;;;;;5052638;28;20498;-71
2023/10/15 10:06:09;;;;;;;8.65;1.02;;;10.20;99.90;;;;;;4985316;28;20526;-71
2023/10/15 10:08:56;;;;;;;10.77;1.52;;;10.20;99.90;;;;;;5054584;28;20049;-71
2023/10/15 10:11:45;;;;;;;9.85;1.20;;;9.90;99.90;;;;;;4971836;28;20037;-70
2023/10/15 10:14:35;;;;;;;7.00;0.98;;;9.80;99.90;;;;;;5016344;28;20515;-69
2023/10/15 10:17:01;;;;;;;10.00;1.13;;;9.80;99.90;;;;;;5044900;28;20052;-70
2023/10/15 10:19:29;;;;;;;12.98;1.92;;;9.80;99.90;;;;;;5015845;28;20044;-70
2023/10/15 10:21:55;;;;;;;6.70;0.88;;;9.80;99.90;;;;;;5042981;28;20048;-70
2023/10/15 10:24:23;;;;;;;7.50;1.17;;;9.90;99.90;;;;;;5017624;28;20467;-70
2023/10/15 10:26:54;;;;;;;7.50;0.90;;;10.10;99.90;;;;;;5057031;28;20051;-68
2023/10/15 10:29:25;;;;;;;11.80;1.15;;;10.10;99.90;;;;;;5018366;28;20080;-70
2023/10/15 10:31:54;;;;;;;7.65;1.20;;;10.10;99.90;;;;;;5032006;28;20059;-70
2023/10/15 10:34:29;;;;;;;6.18;1.10;;;10.10;99.90;;;;;;5010904;28;20062;-70
2023/10/15 10:36:56;;;;;;;10.27;1.17;;;10.00;99.90;;;;;;5039349;28;20048;-70
2023/10/15 10:39:22;;;;;;;7.35;1.00;;;10.00;99.90;;;;;;5015399;28;20060;-71
2023/10/15 10:41:59;;;;;;;7.22;1.08;;;9.90;99.90;;;;;;5031695;28;20734;-71
2023/10/15 10:44:26;;;;;;;9.70;1.23;;;10.00;99.90;;;;;;5008398;28;20048;-70
2023/10/15 10:46:52;;;;;;;9.20;1.00;;;10.00;99.90;;;;;;5028647;28;20048;-70
2023/10/15 10:49:35;;;;;;;7.05;1.00;;;10.00;99.90;;;;;;5004394;28;60550;-70
2023/10/15 10:52:15;;;;;;;10.38;1.00;;;10.00;99.90;;;;;;5028922;28;20049;-69
2023/10/15 10:54:42;;;;;;;9.27;1.23;;;9.90;99.90;;;;;;5005779;28;20048;-68
2023/10/15 10:57:08;;;;;;;10.27;1.05;;;10.00;99.90;;;;;;5031478;28;20056;-71
2023/10/15 10:59:37;;;;;;;7.05;1.23;;;10.10;99.90;;;;;;5016626;28;20068;-69
2023/10/15 11:02:05;;;;;;;9.70;1.20;;;10.10;99.90;;;;;;5043730;28;20053;-69
2023/10/15 11:04:31;;;;;;;9.45;1.38;;;10.10;99.90;;;;;;4996648;28;20052;-70
2023/10/15 11:06:58;;;;;;;7.22;0.88;;;10.20;99.90;;;;;;5031900;28;20418;-69
2023/10/15 11:09:25;;;;;;;7.80;0.98;;;10.30;99.90;;;;;;5012618;28;20060;-70
2023/10/15 11:11:56;;;;;;;9.70;1.38;;;10.40;99.90;;;;;;5028914;28;20526;-71
2023/10/15 11:14:23;;;;;;;8.90;1.30;;;10.40;99.90;;;;;;5018503;28;20057;-70
2023/10/15 11:16:57;;;;;;;7.63;0.98;;;10.50;99.90;;;;;;5033458;28;20048;-69
2023/10/15 11:19:32;;;;;;;9.20;1.13;;;10.50;99.90;;;;;;5008860;28;20056;-69
2023/10/15 11:21:58;;;;;;;7.15;1.08;;;10.60;99.90;;;;;;5040479;28;20048;-70
2023/10/15 11:24:26;;;;;;;6.00;0.90;;;10.60;99.90;;;;;;5016731;28;20075;-69
2023/10/15 11:26:56;;;;;;;7.88;1.17;;;10.60;99.90;;;;;;5057018;28;20068;-69
2023/10/15 11:29:24;;;;;;;7.80;0.88;;;10.60;99.90;;;;;;5014030;28;20061;-70
2023/10/15 11:31:55;;;;;;;7.70;0.95;;;10.60;99.90;;;;;;5061477;28;20049;-69
2023/10/15 11:34:24;;;;;;;10.55;1.27;;;11.00;99.90;;;;;;5015985;28;20778;-69
2023/10/15 11:36:57;;;;;;;10.23;1.33;;;11.60;99.90;;;;;;5038778;28;20057;-69
2023/10/15 11:39:25;;;;;;;8.57;1.10;;;12.00;99.90;;;;;;5017190;28;20045;-70
2023/10/15 11:41:55;;;;;;;8.18;1.25;;;13.20;99.90;;;;;;5039129;28;20506;-70
2023/10/15 11:44:26;;;;;;;8.77;1.10;;;13.60;99.90;;;;;;5019202;28;20045;-70
2023/10/15 11:46:54;;;;;;;11.10;1.42;;;14.20;99.90;;;;;;5039554;28;20318;-69
2023/10/15 11:49:22;;;;;;;9.07;1.00;;;14.90;99.70;;;;;;4998358;28;145566;-69
2023/10/15 11:51:50;;;;;;;9.30;1.30;;;14.80;98.00;;;;;;5059174;28;20063;-70
2023/10/15 11:54:16;;;;;;;11.43;1.35;;;15.20;97.80;;;;;;5019556;28;20436;-70
2023/10/15 11:56:47;;;;;;;9.40;1.15;;;15.10;98.70;;;;;;5039006;28;20427;-70
2023/10/15 11:59:13;;;;;;;6.57;0.93;;;14.70;98.10;;;;;;5021176;28;92950;-69
2023/10/15 12:01:39;;;;;;;7.72;1.02;;;13.70;97.90;;;;;;5045725;28;20415;-71
2023/10/15 12:04:07;;;;;;;6.90;0.95;;;12.50;99.90;;;;;;5021815;28;20118;-70
2023/10/15 12:06:33;;;;;;;6.25;1.05;;;12.00;99.90;;;;;;5047211;28;20071;-70
2023/10/15 12:08:59;;;;;;;11.90;1.00;;;12.00;99.90;;;;;;5028806;28;20045;-70
2023/10/15 12:11:28;;;;;;;8.90;1.23;;;12.80;99.30;;;;;;5029769;28;20757;-71
2023/10/15 12:13:55;;;;;;;6.07;0.85;;;13.70;99.90;;;;;;5055454;28;20055;-70
2023/10/15 12:16:21;;;;;;;9.55;1.40;;;13.70;99.10;;;;;;4994187;28;20037;-70
2023/10/15 12:18:47;;;;;;;10.48;1.27;;;14.40;99.40;;;;;;5066897;28;20048;-70
2023/10/15 12:21:14;;;;;;;7.75;1.30;;;14.80;98.60;;;;;;4997411;28;20072;-70
2023/10/15 12:23:43;;;;;;;9.20;1.45;;;15.30;97.00;;;;;;5064385;28;20049;-70
2023/10/15 12:26:09;;;;;;;7.63;1.20;;;15.70;96.30;;;;;;4985807;28;20049;-70
2023/10/15 12:28:44;;;;;;;10.05;1.35;;;16.10;98.00;;;;;;5056292;28;20061;-69
2023/10/15 12:31:11;;;;;;;8.18;1.30;;;16.10;98.10;;;;;;5000894;28;20060;-69
2023/10/15 12:33:38;;;;;;;8.35;1.30;;;16.00;97.60;;;;;;5060156;28;20506;-69
2023/10/15 12:36:09;;;;;;;6.95;1.05;;;16.30;96.10;;;;;;5015114;28;20594;-70
2023/10/15 12:38:35;;;;;;;9.07;1.15;;;16.60;93.30;;;;;;5056653;28;20055;-70
2023/10/15 12:41:03;;;;;;;10.30;1.20;;;16.10;95.60;;;;;;5011553;28;20053;-69
2023/10/15 12:43:29;;;;;;;7.68;1.20;;;15.50;96.00;;;;;;5059863;28;20048;-70
2023/10/15 12:45:55;;;;;;;9.82;1.38;;;15.40;97.60;;;;;;5011633;28;20059;-71
2023/10/15 12:48:21;;;;;;;10.60;1.23;;;16.00;96.40;;;;;;5060952;28;20048;-70
2023/10/15 12:50:47;;;;;;;8.48;1.20;;;16.20;96.10;;;;;;5005170;28;82003;-72
2023/10/15 12:53:15;;;;;;;10.68;1.40;;;16.80;94.10;;;;;;5056935;28;20072;-70
2023/10/15 12:55:43;;;;;;;10.57;1.35;;;16.30;94.10;;;;;;5037860;28;20055;-70
2023/10/15 12:58:10;;;;;;;10.65;1.50;;;16.20;94.80;;;;;;5063824;28;20052;-70
2023/10/15 13:00:43;;;;;;;7.47;1.10;;;16.90;96.60;;;;;;5020317;28;20053;-71
2023/10/15 13:03:10;;;;;;;8.15;1.15;;;17.10;93.40;;;;;;5057387;28;20049;-70
2023/10/15 13:05:36;;;;;;;9.25;1.38;;;16.80;95.40;;;;;;5007955;28;20388;-70
2023/10/15 13:08:03;;;;;;;8.48;1.20;;;17.50;95.40;;;;;;5054289;28;20053;-70
2023/10/15 13:10:29;;;;;;;7.10;1.10;;;17.20;93.50;;;;;;5010154;28;20052;-70
2023/10/15 13:12:55;;;;;;;6.15;0.80;;;17.70;93.70;;;;;;5058018;28;20522;-70
2023/10/15 13:15:22;;;;;;;7.65;1.00;;;16.70;91.10;;;;;;5012908;28;20040;-70
2023/10/15 13:17:49;;;;;;;7.88;1.00;;;15.50;92.60;;;;;;5061191;28;20048;-70
2023/10/15 13:20:17;;;;;;;8.32;1.05;;;14.70;92.90;;;;;;5019613;28;20052;-70